createdAt,value
2022-08-12T00:02:03.866Z,34.10
2022-08-12T00:05:14.012Z,34.20
2022-08-12T00:08:30.849Z,34.40
2022-08-12T00:11:45.001Z,34.40
2022-08-12T00:14:51.782Z,34.40
2022-08-12T00:17:59.263Z,34.60
2022-08-12T00:21:07.472Z,34.70
2022-08-12T00:24:14.121Z,34.80
2022-08-12T00:27:22.755Z,34.90
2022-08-12T00:30:32.059Z,34.80
2022-08-12T00:33:52.578Z,35.00
2022-08-12T00:37:12.959Z,34.90
2022-08-12T00:40:20.813Z,35.00
2022-08-12T00:43:16.485Z,35.10
2022-08-12T00:46:24.460Z,35.30
2022-08-12T00:49:14.429Z,35.40
2022-08-12T00:52:07.653Z,35.50
2022-08-12T00:54:59.417Z,35.60
2022-08-12T00:57:52.035Z,35.70
2022-08-12T01:00:43.627Z,35.70
2022-08-12T01:03:51.240Z,35.80
2022-08-12T01:06:59.459Z,35.70
2022-08-12T01:10:09.584Z,35.70
2022-08-12T01:13:07.427Z,35.90
2022-08-12T01:16:12.125Z,35.90
2022-08-12T01:19:03.901Z,36.00
2022-08-12T01:22:23.134Z,36.10
2022-08-12T01:25:18.512Z,36.60
2022-08-12T01:28:13.640Z,36.20
2022-08-12T01:31:06.388Z,36.30
2022-08-12T01:34:04.754Z,36.30
2022-08-12T01:36:59.057Z,36.50
2022-08-12T01:40:35.055Z,36.40
2022-08-12T01:43:09.012Z,36.50
2022-08-12T01:46:09.089Z,36.60
2022-08-12T01:49:21.731Z,36.70
2022-08-12T01:52:29.448Z,36.80
2022-08-12T01:55:24.398Z,36.90
2022-08-12T01:58:52.128Z,36.80
2022-08-12T02:01:42.319Z,37.10
2022-08-12T02:05:05.049Z,36.70
2022-08-12T02:08:29.441Z,37.00
2022-08-12T02:11:24.818Z,37.20
2022-08-12T02:14:35.439Z,37.00
2022-08-12T02:17:55.462Z,37.40
2022-08-12T02:20:56.413Z,37.40
2022-08-12T02:23:45.904Z,37.30
2022-08-12T02:26:37.653Z,37.10
2022-08-12T02:29:29.053Z,37.40
2022-08-12T02:32:18.900Z,37.40
2022-08-12T02:35:11.898Z,38.10
2022-08-12T02:38:05.196Z,37.60
2022-08-12T02:40:57.223Z,37.60
2022-08-12T02:43:53.403Z,37.70
2022-08-12T02:46:49.162Z,37.70
2022-08-12T02:49:46.093Z,37.80
2022-08-12T02:52:36.366Z,37.90
2022-08-12T02:55:34.478Z,37.80
2022-08-12T02:58:32.935Z,37.90
2022-08-12T03:01:28.615Z,37.90
2022-08-12T03:04:30.039Z,38.00
2022-08-12T03:07:56.386Z,38.90
2022-08-12T03:10:44.200Z,38.10
2022-08-12T03:13:43.068Z,38.00
2022-08-12T03:16:33.775Z,38.00
2022-08-12T03:19:31.005Z,37.90
2022-08-12T03:22:21.942Z,38.00
2022-08-12T03:25:17.874Z,38.10
2022-08-12T03:28:11.649Z,38.20
2022-08-12T03:31:13.504Z,38.30
2022-08-12T03:34:07.332Z,38.30
2022-08-12T03:36:58.903Z,38.40
2022-08-12T03:39:48.562Z,38.40
2022-08-12T03:42:42.331Z,38.30
2022-08-12T03:45:53.020Z,38.40
2022-08-12T03:49:00.197Z,38.40
2022-08-12T03:52:07.134Z,38.50
2022-08-12T03:55:15.193Z,38.50
2022-08-12T03:58:22.481Z,38.80
2022-08-12T04:01:13.097Z,38.90
2022-08-12T04:04:04.076Z,39.20
2022-08-12T04:06:54.380Z,39.30
2022-08-12T04:09:46.140Z,39.40
2022-08-12T04:12:54.207Z,39.40
2022-08-12T04:15:45.601Z,40.20
2022-08-12T04:18:35.484Z,39.60
2022-08-12T04:21:25.944Z,39.80
2022-08-12T04:24:16.151Z,39.70
2022-08-12T04:27:09.430Z,39.90
2022-08-12T04:30:30.946Z,39.90
2022-08-12T04:33:10.655Z,40.00
2022-08-12T04:36:00.257Z,40.10
2022-08-12T04:38:49.945Z,40.30
2022-08-12T04:41:57.648Z,40.60
2022-08-12T04:44:48.589Z,41.40
2022-08-12T04:47:40.406Z,42.10
2022-08-12T04:50:35.975Z,42.70
2022-08-12T04:53:26.267Z,42.90
2022-08-12T04:56:16.665Z,42.50
2022-08-12T04:59:06.093Z,42.00
2022-08-12T05:01:57.044Z,41.30
2022-08-12T05:04:48.686Z,41.10
2022-08-12T05:07:53.963Z,40.70
2022-08-12T05:10:46.372Z,40.90
2022-08-12T05:13:39.192Z,41.30
2022-08-12T05:16:34.157Z,42.10
2022-08-12T05:19:25.504Z,42.90
2022-08-12T05:22:16.266Z,43.70
2022-08-12T05:25:07.365Z,44.10
2022-08-12T05:27:59.129Z,44.40
2022-08-12T05:30:49.159Z,44.50
2022-08-12T05:33:40.291Z,44.70
2022-08-12T05:36:29.787Z,44.60
2022-08-12T05:39:20.615Z,45.10
2022-08-12T05:42:10.682Z,44.10
2022-08-12T05:45:00.215Z,43.60
2022-08-12T05:47:53.620Z,43.20
2022-08-12T05:50:45.741Z,42.60
2022-08-12T05:53:35.344Z,42.10
2022-08-12T05:56:28.939Z,41.90
2022-08-12T05:59:18.374Z,41.60
2022-08-12T06:02:13.388Z,41.20
2022-08-12T06:05:03.290Z,40.80
2022-08-12T06:08:01.239Z,40.60
2022-08-12T06:10:52.147Z,40.20
2022-08-12T06:13:53.861Z,40.20
2022-08-12T06:16:46.395Z,39.70
2022-08-12T06:20:28.250Z,39.40
2022-08-12T06:22:47.880Z,38.90
2022-08-12T06:25:38.470Z,38.40
2022-08-12T06:28:30.544Z,37.80
2022-08-12T06:31:26.276Z,37.50
2022-08-12T06:35:23.273Z,37.00
2022-08-12T06:37:27.613Z,36.60
2022-08-12T06:40:39.132Z,36.20
2022-08-12T06:43:27.736Z,36.00
2022-08-12T06:46:17.193Z,35.40
2022-08-12T06:49:08.672Z,35.20
2022-08-12T06:51:58.146Z,34.90
2022-08-12T06:54:47.594Z,34.50
2022-08-12T06:58:05.342Z,34.10
2022-08-12T07:00:59.583Z,33.00
2022-08-12T07:03:51.249Z,34.00
2022-08-12T07:06:42.176Z,33.80
2022-08-12T07:10:03.964Z,33.30
2022-08-12T07:12:42.693Z,32.80
2022-08-12T07:15:32.414Z,32.60
2022-08-12T07:18:21.873Z,32.00
2022-08-12T07:21:12.169Z,31.80
2022-08-12T07:24:02.973Z,31.60
2022-08-12T07:26:54.905Z,31.70
2022-08-12T07:30:04.032Z,31.50
2022-08-12T07:33:01.634Z,31.00
2022-08-12T07:35:54.002Z,30.20
2022-08-12T07:38:47.047Z,29.80
2022-08-12T07:41:37.916Z,29.40
2022-08-12T07:44:28.713Z,29.10
2022-08-12T07:47:18.236Z,28.90
2022-08-12T07:50:09.505Z,28.80
2022-08-12T07:53:00.030Z,28.80
2022-08-12T07:55:49.459Z,28.90
2022-08-12T07:58:45.247Z,29.00
2022-08-12T08:01:38.958Z,29.10
2022-08-12T08:04:45.944Z,29.40
2022-08-12T08:07:35.432Z,29.60
2022-08-12T08:10:26.260Z,29.90
2022-08-12T08:13:15.324Z,30.30
2022-08-12T08:16:06.556Z,30.90
2022-08-12T08:18:59.660Z,31.30
2022-08-12T08:21:50.525Z,31.60
2022-08-12T08:24:40.724Z,32.30
2022-08-12T08:27:45.517Z,33.00
2022-08-12T08:30:38.492Z,33.10
2022-08-12T08:34:09.612Z,32.90
2022-08-12T08:36:40.707Z,32.50
2022-08-12T08:39:32.175Z,32.70
2022-08-12T08:42:40.540Z,32.50
2022-08-12T08:45:30.341Z,32.60
2022-08-12T08:48:22.445Z,32.70
2022-08-12T08:51:14.882Z,32.40
2022-08-12T08:54:06.855Z,31.80
2022-08-12T08:56:57.904Z,31.50
2022-08-12T08:59:51.798Z,31.20
2022-08-12T09:02:41.829Z,31.60
2022-08-12T09:09:03.374Z,30.90
2022-08-12T09:12:25.049Z,30.70
2022-08-12T09:15:19.271Z,30.60
2022-08-12T09:18:12.439Z,30.20
2022-08-12T09:21:06.310Z,29.90
2022-08-12T09:24:05.960Z,30.20
2022-08-12T09:26:59.075Z,30.00
2022-08-12T09:30:11.804Z,30.30
2022-08-12T09:33:14.291Z,30.20
2022-08-12T09:36:09.672Z,29.80
2022-08-12T09:39:02.851Z,29.60
2022-08-12T09:42:38.804Z,30.00
2022-08-12T09:46:06.219Z,30.10
2022-08-12T09:48:56.589Z,29.80
2022-08-12T09:51:47.598Z,29.80
2022-08-12T09:54:42.991Z,29.30
2022-08-12T09:58:45.474Z,29.70
2022-08-12T10:00:51.967Z,29.20
2022-08-12T10:04:03.280Z,29.00
2022-08-12T10:06:57.832Z,29.00
2022-08-12T10:09:58.155Z,29.20
2022-08-12T10:13:12.063Z,29.20
2022-08-12T10:16:22.181Z,28.70
2022-08-12T10:19:17.254Z,28.50
2022-08-12T10:22:16.962Z,28.30
2022-08-12T10:26:35.409Z,27.90
2022-08-12T10:29:03.444Z,27.40
2022-08-12T10:32:20.748Z,27.10
2022-08-12T10:35:11.294Z,27.30
2022-08-12T10:38:34.806Z,27.70
2022-08-12T10:41:57.187Z,28.20
2022-08-12T10:44:41.373Z,28.70
2022-08-12T10:48:07.100Z,28.50
2022-08-12T10:51:02.079Z,28.20
2022-08-12T10:53:52.910Z,28.50
2022-08-12T10:56:50.309Z,28.80
2022-08-12T11:00:35.980Z,28.50
2022-08-12T11:04:22.338Z,28.20
2022-08-12T11:07:09.932Z,28.10
2022-08-12T11:09:18.692Z,28.50
2022-08-12T11:12:56.718Z,29.00
2022-08-12T11:16:19.558Z,29.20
2022-08-12T11:18:55.046Z,29.00
2022-08-12T11:21:58.341Z,28.90
2022-08-12T11:24:51.719Z,28.70
2022-08-12T11:27:41.677Z,28.50
2022-08-12T11:30:32.156Z,28.40
2022-08-12T11:33:24.099Z,28.20
2022-08-12T11:36:39.179Z,28.10
2022-08-12T11:40:03.583Z,28.10
2022-08-12T11:42:46.417Z,28.30
2022-08-12T11:45:38.987Z,28.50
2022-08-12T11:48:31.353Z,28.60
2022-08-12T11:51:41.312Z,28.70
2022-08-12T11:54:31.388Z,28.70
2022-08-12T11:58:13.080Z,28.90
2022-08-12T12:03:46.258Z,29.20
2022-08-12T12:06:36.433Z,29.30
2022-08-12T12:09:28.447Z,29.20
2022-08-12T12:12:38.625Z,29.40
2022-08-12T12:15:40.612Z,30.00
2022-08-12T12:18:33.132Z,29.40
2022-08-12T12:21:47.085Z,29.60
2022-08-12T12:24:33.606Z,29.80
2022-08-12T12:27:40.177Z,29.90
2022-08-12T12:30:32.798Z,30.00
2022-08-12T12:33:22.350Z,29.90
2022-08-12T12:36:20.012Z,30.00
2022-08-12T12:39:11.820Z,30.30
2022-08-12T12:42:44.332Z,30.50
2022-08-12T12:45:27.263Z,30.80
2022-08-12T12:48:18.644Z,30.60
2022-08-12T12:51:48.299Z,30.70
2022-08-12T12:54:30.798Z,30.70
2022-08-12T12:57:36.406Z,30.70
2022-08-12T13:00:34.211Z,30.70
2022-08-12T13:03:23.823Z,30.40
2022-08-12T13:06:13.860Z,30.50
2022-08-12T13:09:04.495Z,30.50
2022-08-12T13:11:55.260Z,30.60
2022-08-12T13:14:47.883Z,30.70
2022-08-12T13:18:02.126Z,30.70
2022-08-12T13:20:50.054Z,30.80
2022-08-12T13:23:51.269Z,30.70
2022-08-12T13:26:40.940Z,30.60
2022-08-12T13:29:32.979Z,30.70
2022-08-12T13:32:31.482Z,30.80
2022-08-12T13:36:02.693Z,30.80
2022-08-12T13:38:38.983Z,31.00
2022-08-12T13:41:34.275Z,31.30
2022-08-12T13:44:23.868Z,31.30
2022-08-12T13:47:19.538Z,31.40
2022-08-12T13:50:11.454Z,31.30
2022-08-12T13:53:06.280Z,31.40
2022-08-12T13:56:11.895Z,31.50
2022-08-12T13:59:01.958Z,31.50
2022-08-12T14:01:51.474Z,31.50
2022-08-12T14:04:45.499Z,31.80
2022-08-12T14:07:59.030Z,32.00
2022-08-12T14:10:53.514Z,32.10
2022-08-12T14:14:03.662Z,31.80
2022-08-12T14:16:54.181Z,31.80
2022-08-12T14:20:05.935Z,31.90
2022-08-12T14:23:00.003Z,31.90
2022-08-12T14:26:13.628Z,31.90
2022-08-12T14:29:06.515Z,31.90
2022-08-12T14:31:56.011Z,31.80
2022-08-12T14:34:51.264Z,31.80
2022-08-12T14:37:56.603Z,31.80
2022-08-12T14:40:48.906Z,31.80
2022-08-12T14:43:44.150Z,31.70
2022-08-12T14:46:59.251Z,31.80
2022-08-12T14:50:41.647Z,31.70
2022-08-12T14:55:36.209Z,31.90
2022-08-12T14:59:56.972Z,32.10
2022-08-12T15:02:46.607Z,31.90
2022-08-12T15:06:05.085Z,31.80
2022-08-12T15:08:48.353Z,31.70
2022-08-12T15:11:54.418Z,31.60
2022-08-12T15:14:47.418Z,31.60
2022-08-12T15:17:38.578Z,31.70
2022-08-12T15:20:37.360Z,31.90
2022-08-12T15:23:32.765Z,32.00
2022-08-12T15:26:28.619Z,32.20
2022-08-12T15:29:21.329Z,32.30
2022-08-12T15:32:15.957Z,32.30
2022-08-12T15:35:12.031Z,32.30
2022-08-12T15:38:08.396Z,32.20
2022-08-12T15:41:01.862Z,32.10
2022-08-12T15:44:37.228Z,32.10
2022-08-12T15:47:00.885Z,32.00
2022-08-12T15:49:59.599Z,32.00
2022-08-12T15:52:50.189Z,32.10
2022-08-12T15:55:46.319Z,32.10
2022-08-12T15:58:38.513Z,32.20
2022-08-12T16:01:35.464Z,32.30
2022-08-12T16:04:25.316Z,32.30
2022-08-12T16:07:16.275Z,32.20
2022-08-12T16:10:09.192Z,32.30
2022-08-12T16:13:04.532Z,32.30
2022-08-12T16:16:02.479Z,32.30
2022-08-12T16:18:56.303Z,32.20
2022-08-12T16:21:51.590Z,32.20
2022-08-12T16:24:47.800Z,32.30
2022-08-12T16:27:42.857Z,32.40
2022-08-12T16:30:35.132Z,32.50
2022-08-12T16:33:59.636Z,32.50
2022-08-12T16:36:47.549Z,32.70
2022-08-12T16:40:00.335Z,32.70
2022-08-12T16:42:53.417Z,32.60
2022-08-12T16:46:05.319Z,32.90
2022-08-12T16:48:57.077Z,32.70
2022-08-12T16:51:51.317Z,32.70
2022-08-12T16:54:40.761Z,32.70
2022-08-12T16:57:34.997Z,32.70
2022-08-12T17:00:25.311Z,32.70
2022-08-12T17:03:28.640Z,32.70
2022-08-12T17:06:22.312Z,32.80
2022-08-12T17:09:17.758Z,32.80
2022-08-12T17:12:09.510Z,32.80
2022-08-12T17:14:59.065Z,32.80
2022-08-12T17:17:51.102Z,32.70
2022-08-12T17:21:04.373Z,32.80
2022-08-12T17:23:55.856Z,32.80
2022-08-12T17:26:49.506Z,32.80
2022-08-12T17:30:00.577Z,32.80
2022-08-12T17:32:53.130Z,32.80
2022-08-12T17:35:43.461Z,32.80
2022-08-12T17:38:40.628Z,32.90
2022-08-12T17:41:56.542Z,32.90
2022-08-12T17:44:43.572Z,33.00
2022-08-12T17:47:36.548Z,33.00
2022-08-12T17:50:28.512Z,33.00
2022-08-12T17:53:20.141Z,33.00
2022-08-12T17:56:10.482Z,33.10
2022-08-12T17:59:02.758Z,33.20
2022-08-12T18:01:52.521Z,33.20
2022-08-12T18:05:05.401Z,33.10
2022-08-12T18:07:55.152Z,33.20
2022-08-12T18:11:11.832Z,33.20
2022-08-12T18:14:02.922Z,33.30
2022-08-12T18:16:55.221Z,33.30
2022-08-12T18:20:05.170Z,33.30
2022-08-12T18:22:56.125Z,33.30
2022-08-12T18:26:15.203Z,33.30
2022-08-12T18:29:10.005Z,33.30
2022-08-12T18:32:06.134Z,33.30
2022-08-12T18:35:11.331Z,33.40
2022-08-12T18:38:03.459Z,33.40
2022-08-12T18:41:11.349Z,33.40
2022-08-12T18:44:13.859Z,33.50
2022-08-12T18:47:09.655Z,33.50
2022-08-12T18:50:03.086Z,33.50
2022-08-12T18:52:53.403Z,33.50
2022-08-12T18:55:57.374Z,33.60
2022-08-12T18:58:59.593Z,33.70
2022-08-12T19:02:21.240Z,33.70
2022-08-12T19:05:09.328Z,33.80
2022-08-12T19:08:02.120Z,33.70
2022-08-12T19:10:56.013Z,33.80
2022-08-12T19:14:04.629Z,33.90
2022-08-12T19:17:01.477Z,34.00
2022-08-12T19:19:51.650Z,34.10
2022-08-12T19:22:41.338Z,34.20
2022-08-12T19:26:01.478Z,34.30
2022-08-12T19:28:41.699Z,34.30
2022-08-12T19:31:57.599Z,34.40
2022-08-12T19:38:07.295Z,34.40
2022-08-12T19:40:58.753Z,34.60
2022-08-12T19:44:00.503Z,34.60
2022-08-12T19:47:00.780Z,34.70
2022-08-12T19:49:55.266Z,35.40
2022-08-12T19:52:44.702Z,34.90
2022-08-12T19:55:38.998Z,34.90
2022-08-12T19:58:28.605Z,35.00
2022-08-12T20:01:18.787Z,35.10
2022-08-12T20:04:08.522Z,35.00
2022-08-12T20:07:00.131Z,35.10
2022-08-12T20:09:52.596Z,35.20
2022-08-12T20:13:05.702Z,35.30
2022-08-12T20:15:59.960Z,35.30
2022-08-12T20:18:57.080Z,35.30
2022-08-12T20:21:47.362Z,35.40
2022-08-12T20:24:39.010Z,35.50
2022-08-12T20:28:02.370Z,35.60
2022-08-12T20:30:59.195Z,35.60
2022-08-12T20:33:56.105Z,35.60
2022-08-12T20:36:47.575Z,35.70
2022-08-12T20:39:56.001Z,35.80
2022-08-12T20:42:47.752Z,35.90
2022-08-12T20:45:50.587Z,36.60
2022-08-12T20:48:43.585Z,36.00
2022-08-12T20:51:50.962Z,36.10
2022-08-12T20:54:50.271Z,36.20
2022-08-12T20:58:02.518Z,36.30
2022-08-12T21:00:51.023Z,36.30
2022-08-12T21:03:58.198Z,36.30
2022-08-12T21:07:08.507Z,36.30
2022-08-12T21:09:59.355Z,36.50
2022-08-12T21:12:52.125Z,36.50
2022-08-12T21:15:54.453Z,36.70
2022-08-12T21:18:50.825Z,36.60
2022-08-12T21:21:49.890Z,36.70
2022-08-12T21:24:46.641Z,36.80
2022-08-12T21:27:59.337Z,36.80
2022-08-12T21:32:35.065Z,36.80
2022-08-12T21:34:07.117Z,36.90
2022-08-12T21:37:12.982Z,36.90
2022-08-12T21:40:15.035Z,37.00
2022-08-12T21:43:08.276Z,37.00
2022-08-12T21:46:01.826Z,37.20
2022-08-12T21:48:56.718Z,37.50
2022-08-12T21:51:50.642Z,37.50
2022-08-12T21:54:42.637Z,37.50
2022-08-12T21:57:36.489Z,37.60
2022-08-12T22:00:41.177Z,37.70
2022-08-12T22:04:10.838Z,37.70
2022-08-12T22:06:59.478Z,37.80
2022-08-12T22:09:56.919Z,37.80
2022-08-12T22:12:47.382Z,37.80
2022-08-12T22:15:36.823Z,38.10
2022-08-12T22:18:27.401Z,38.20
2022-08-12T22:21:22.287Z,38.40
2022-08-12T22:24:25.688Z,38.40
2022-08-12T22:27:32.058Z,38.40
2022-08-12T22:30:39.920Z,38.50
2022-08-12T22:33:30.369Z,38.50
2022-08-12T22:36:41.106Z,38.70
2022-08-12T22:39:33.529Z,38.80
2022-08-12T22:42:42.796Z,39.00
2022-08-12T22:45:58.747Z,39.00
2022-08-12T22:48:50.222Z,39.00
2022-08-12T22:51:59.869Z,39.00
2022-08-12T22:55:02.809Z,39.30
2022-08-12T22:57:55.260Z,39.40
2022-08-12T23:00:48.431Z,39.50
2022-08-12T23:03:48.116Z,39.60
2022-08-12T23:06:40.611Z,39.60
2022-08-12T23:09:48.630Z,39.70
2022-08-12T23:12:55.701Z,39.90
2022-08-12T23:15:54.699Z,39.90
2022-08-12T23:18:45.158Z,40.00
2022-08-12T23:22:03.631Z,40.00
2022-08-12T23:24:53.925Z,40.00
2022-08-12T23:28:03.705Z,40.10
2022-08-12T23:30:53.971Z,40.20
2022-08-12T23:34:01.575Z,40.20
2022-08-12T23:36:54.655Z,40.40
2022-08-12T23:40:14.484Z,40.40
2022-08-12T23:42:55.295Z,40.60
2022-08-12T23:46:00.520Z,40.50
2022-08-12T23:48:51.738Z,40.60
2022-08-12T23:51:41.324Z,41.30
2022-08-12T23:54:38.583Z,40.80
2022-08-12T23:58:17.427Z,40.80
